Time;durP1;ratioP1;P1;durP2;ratioP2;P2;SDS_P1;SDS_P2;PMS_P1;PMS_P2;Temp;Humidity;BMP_temperature;BMP_pressure;BME280_temperature;BME280_humidity;BME280_pressure;Samples;Min_cycle;Max_cycle;Signal;HPM_P1;HPM_P2
2021/07/12 09:47:31;;;;;;;10.93;8.88;;;;;;;30.29;48.99;99119.98;1831135;77;22653;-49
2021/07/12 09:50:17;;;;;;;10.28;8.13;;;;;;;30.45;48.79;99114.45;1851508;76;22115;-46
2021/07/12 09:53:01;;;;;;;8.98;8.08;;;;;;;30.61;48.59;99114.75;1868852;76;22332;-48
2021/07/12 09:55:41;;;;;;;12.33;8.25;;;;;;;30.78;47.71;99110.41;1852853;76;22515;-46
2021/07/12 09:58:16;;;;;;;9.93;8.73;;;;;;;30.64;48.07;99119.86;1852241;76;22274;-51
2021/07/12 10:00:54;;;;;;;15.72;8.13;;;;;;;30.37;48.53;99114.12;1866651;76;22090;-50
2021/07/12 10:03:33;;;;;;;10.10;8.03;;;;;;;30.35;48.99;99120.03;1852123;76;22124;-45
2021/07/12 10:06:09;;;;;;;12.00;8.45;;;;;;;30.21;49.50;99124.10;1854003;76;22227;-50
2021/07/12 10:08:45;;;;;;;16.57;9.70;;;;;;;30.19;49.62;99124.19;1870505;76;22082;-48
2021/07/12 10:11:20;;;;;;;14.23;9.33;;;;;;;30.21;49.74;99126.77;1873942;76;48492;-51
2021/07/12 10:13:57;;;;;;;14.38;9.05;;;;;;;30.21;49.93;99124.95;1873791;76;27933;-44
2021/07/12 10:16:32;;;;;;;11.90;8.75;;;;;;;30.02;50.53;99118.69;1870606;76;22248;-63
2021/07/12 10:19:08;;;;;;;11.73;8.55;;;;;;;29.83;50.41;99119.52;1854911;76;31890;-61
2021/07/12 10:21:50;;;;;;;12.75;8.78;;;;;;;29.85;49.97;99109.16;1854532;76;28041;-61
2021/07/12 10:24:29;;;;;;;11.60;8.03;;;;;;;29.96;49.72;99107.11;1870567;76;22066;-57
2021/07/12 10:27:27;;;;;;;9.85;7.53;;;;;;;29.96;49.94;99104.44;1889755;76;22171;-58
2021/07/12 10:30:40;;;;;;;11.95;7.85;;;;;;;29.95;49.93;99114.72;1889803;76;22358;-60
2021/07/12 10:33:19;;;;;;;12.43;7.47;;;;;;;29.93;49.38;99112.64;1870281;76;22197;-59
2021/07/12 10:36:38;;;;;;;9.15;7.05;;;;;;;29.88;49.80;99111.24;1834587;77;22258;-65
2021/07/12 10:39:13;;;;;;;11.55;6.92;;;;;;;29.79;48.90;99106.03;1856097;76;22186;-63
2021/07/12 10:41:49;;;;;;;9.30;6.65;;;;;;;29.71;48.72;99101.70;1870253;76;22617;-63
2021/07/12 10:44:23;;;;;;;11.10;7.00;;;;;;;29.66;48.04;99100.67;1839243;76;28409;-64
2021/07/12 10:46:59;;;;;;;10.53;6.90;;;;;;;29.72;48.11;99095.45;1846740;76;22205;-63
2021/07/12 10:49:38;;;;;;;9.68;6.62;;;;;;;29.71;48.20;99089.73;1863184;75;22134;-62
2021/07/12 10:52:44;;;;;;;9.90;6.83;;;;;;;29.70;47.38;99077.40;1852515;76;22286;-63
2021/07/12 10:55:35;;;;;;;8.90;6.75;;;;;;;29.55;47.71;99078.73;1868664;76;22622;-63
2021/07/12 10:58:29;;;;;;;8.45;7.00;;;;;;;29.38;48.47;99067.86;1865258;76;22345;-62
2021/07/12 11:01:40;;;;;;;9.68;6.90;;;;;;;29.37;48.58;99065.32;1855718;76;20219;-62
2021/07/12 11:04:53;;;;;;;9.70;6.80;;;;;;;29.40;48.83;99057.14;1869498;76;22180;-63
2021/07/12 11:07:49;;;;;;;8.88;7.10;;;;;;;29.47;49.21;99051.80;1863135;76;22186;-64
2021/07/12 11:10:28;;;;;;;11.10;7.35;;;;;;;29.49;49.47;99047.24;1869289;76;22193;-63
2021/07/12 11:13:09;;;;;;;9.50;7.53;;;;;;;29.52;50.24;99047.52;1860135;76;22255;-62
2021/07/12 11:16:19;;;;;;;9.43;7.90;;;;;;;29.50;50.73;99048.09;1856515;76;22593;-63
2021/07/12 11:19:31;;;;;;;10.75;6.97;;;;;;;29.40;50.61;99038.53;1853076;76;22456;-63
2021/07/12 11:22:20;;;;;;;9.13;7.45;;;;;;;29.33;50.67;99033.23;1865937;76;22194;-63
2021/07/12 11:25:08;;;;;;;8.55;7.15;;;;;;;29.36;49.78;99026.37;1852867;76;22331;-63
2021/07/12 11:27:46;;;;;;;11.93;7.22;;;;;;;29.39;49.72;99020.88;1850231;76;20157;-64
2021/07/12 11:30:30;;;;;;;8.48;5.92;;;;;;;29.44;49.28;99017.45;1847111;76;22175;-65
2021/07/12 11:33:07;;;;;;;12.43;6.78;;;;;;;29.44;49.06;99013.45;1832832;76;27947;-64
2021/07/12 11:36:01;;;;;;;10.10;6.53;;;;;;;29.54;49.24;99019.87;1852751;76;22155;-65
2021/07/12 11:38:36;;;;;;;8.85;6.67;;;;;;;29.58;49.09;99009.38;1852844;76;22171;-62
2021/07/12 11:41:11;;;;;;;9.10;6.97;;;;;;;29.54;49.34;99009.23;1855291;76;22238;-63
2021/07/12 11:44:11;;;;;;;10.43;6.33;;;;;;;29.51;49.45;99019.20;1854651;76;22572;-64
2021/07/12 11:46:46;;;;;;;16.35;7.42;;;;;;;29.52;49.63;99027.09;1860227;76;22160;-63
2021/07/12 11:49:25;;;;;;;14.77;7.30;;;;;;;29.60;49.43;99036.73;1854890;76;27968;-62
2021/07/12 11:51:58;;;;;;;8.83;6.50;;;;;;;29.68;49.23;99015.46;1876779;76;22140;-62
2021/07/12 11:54:38;;;;;;;10.53;6.95;;;;;;;29.70;48.87;99016.22;1838136;76;28049;-64
2021/07/12 11:57:33;;;;;;;8.50;6.40;;;;;;;29.71;48.62;99011.27;1853906;76;22138;-63
2021/07/12 12:00:31;;;;;;;10.18;6.72;;;;;;;29.72;48.47;99011.17;1866857;76;22128;-65
2021/07/12 12:03:13;;;;;;;11.05;6.97;;;;;;;29.80;48.49;99010.66;1855887;76;22645;-62
2021/07/12 12:05:47;;;;;;;9.08;6.75;;;;;;;29.87;48.27;99014.61;1859556;76;22182;-67
2021/07/12 12:08:22;;;;;;;9.63;7.30;;;;;;;29.82;48.73;99016.73;1864805;76;22348;-64
2021/07/12 12:10:57;;;;;;;12.95;7.30;;;;;;;29.79;50.02;99020.45;1862403;76;22234;-63
2021/07/12 12:13:38;;;;;;;10.28;7.80;;;;;;;29.71;50.61;99023.23;1854152;76;22195;-63
2021/07/12 12:16:28;;;;;;;8.33;6.87;;;;;;;29.57;50.97;99038.28;1855172;75;22247;-62
2021/07/12 12:19:09;;;;;;;12.95;7.33;;;;;;;29.35;50.66;99035.31;1854335;76;22260;-63
2021/07/12 12:22:03;;;;;;;11.65;7.50;;;;;;;29.31;51.13;99038.66;1866017;76;22625;-63
2021/07/12 12:24:38;;;;;;;13.98;8.03;;;;;;;29.31;51.54;99020.50;1871583;76;22136;-64
2021/07/12 12:27:21;;;;;;;11.38;8.13;;;;;;;29.28;52.04;99028.69;1859981;76;22201;-62
2021/07/12 12:30:15;;;;;;;11.53;8.13;;;;;;;29.25;52.09;99019.59;1865723;76;22158;-65
2021/07/12 12:32:56;;;;;;;9.25;7.90;;;;;;;29.24;52.17;99013.91;1870040;76;22152;-61
2021/07/12 12:35:31;;;;;;;8.15;7.03;;;;;;;29.09;52.07;99017.92;1870420;76;22548;-62
2021/07/12 12:38:15;;;;;;;11.33;7.58;;;;;;;28.92;52.11;99012.32;1855785;76;22353;-63
2021/07/12 12:40:59;;;;;;;8.20;6.60;;;;;;;28.76;52.41;99001.83;1860678;76;22590;-63
2021/07/12 12:43:36;;;;;;;10.93;7.40;;;;;;;28.66;53.21;98999.85;1870093;76;22151;-63
2021/07/12 12:46:17;;;;;;;9.93;7.58;;;;;;;28.54;53.80;99008.10;1869700;76;22583;-62
2021/07/12 12:48:51;;;;;;;10.82;7.58;;;;;;;28.30;54.92;99013.10;1889947;76;22610;-62
2021/07/12 12:51:33;;;;;;;15.18;8.60;;;;;;;28.04;55.86;99007.58;1842990;76;22167;-61
2021/07/12 12:54:36;;;;;;;15.28;8.30;;;;;;;27.94;56.51;99007.75;1859649;76;22156;-63
2021/07/12 12:57:12;;;;;;;13.32;7.97;;;;;;;27.96;56.81;99013.83;1855106;76;22160;-61
2021/07/12 12:59:47;;;;;;;9.48;8.25;;;;;;;28.02;56.77;99013.92;1854079;76;22586;-65
2021/07/12 13:02:21;;;;;;;11.53;7.70;;;;;;;28.04;57.18;99004.92;1852241;76;22669;-63
2021/07/12 13:04:57;;;;;;;12.35;8.60;;;;;;;28.02;57.54;99019.23;1853545;76;22623;-61
2021/07/12 13:07:43;;;;;;;10.08;7.67;;;;;;;28.04;57.49;99014.21;1839545;76;27981;-64
2021/07/12 13:10:25;;;;;;;8.63;7.10;;;;;;;28.05;56.99;99020.36;1852952;76;20377;-65
2021/07/12 13:13:12;;;;;;;11.20;7.53;;;;;;;28.14;56.93;99029.11;1852920;76;22195;-63
2021/07/12 13:16:14;;;;;;;9.73;8.13;;;;;;;28.22;56.62;99028.17;1857649;76;22582;-63
2021/07/12 13:18:51;;;;;;;8.25;7.40;;;;;;;28.23;56.02;99039.63;1858161;76;22641;-63
2021/07/12 13:21:47;;;;;;;11.28;9.28;;;;;;;28.22;56.43;99032.15;1859581;76;22211;-64
2021/07/12 13:24:44;;;;;;;17.52;8.48;;;;;;;28.12;56.81;99024.36;1851708;76;22146;-63
2021/07/12 13:27:36;;;;;;;10.90;8.48;;;;;;;28.11;56.87;99019.98;1847388;76;22609;-64
2021/07/12 13:30:14;;;;;;;10.03;8.75;;;;;;;28.15;56.98;99012.23;1856795;76;22162;-64
2021/07/12 13:33:08;;;;;;;13.38;8.73;;;;;;;28.24;56.82;99006.38;1873819;76;20380;-64
2021/07/12 13:36:02;;;;;;;9.68;8.43;;;;;;;28.41;56.67;99001.82;1856092;76;22159;-60
2021/07/12 13:38:37;;;;;;;12.40;8.93;;;;;;;28.52;56.15;99005.56;1850895;76;28053;-59
2021/07/12 13:41:12;;;;;;;11.63;8.10;;;;;;;28.55;56.12;99011.16;1866517;76;22591;-63
2021/07/12 13:43:47;;;;;;;15.53;8.45;;;;;;;28.49;56.31;99008.86;1845559;76;22227;-64
2021/07/12 13:46:21;;;;;;;10.88;8.65;;;;;;;28.51;56.55;99008.30;1849425;76;22303;-60
2021/07/12 13:48:56;;;;;;;11.78;8.43;;;;;;;28.54;56.60;99004.97;1853560;76;22299;-62
2021/07/12 13:51:31;;;;;;;10.88;9.00;;;;;;;28.46;56.82;99000.61;1870642;76;22547;-64
2021/07/12 13:54:07;;;;;;;13.88;8.98;;;;;;;28.39;57.25;99004.55;1856546;76;22155;-63
2021/07/12 13:57:04;;;;;;;11.53;7.80;;;;;;;28.45;57.08;99008.69;1856161;76;22272;-66
2021/07/12 13:59:43;;;;;;;11.20;8.73;;;;;;;28.53;57.04;99008.58;1855693;76;22167;-65
2021/07/12 14:02:19;;;;;;;10.72;8.15;;;;;;;28.59;56.74;99011.32;1850170;76;22174;-64
2021/07/12 14:04:54;;;;;;;12.53;9.13;;;;;;;28.60;56.77;99003.75;1851628;76;22211;-64
2021/07/12 14:07:29;;;;;;;11.80;9.28;;;;;;;28.59;56.88;99006.02;1850947;76;22235;-64
2021/07/12 14:10:09;;;;;;;13.40;9.00;;;;;;;28.62;57.01;99002.31;1863919;76;22630;-64
2021/07/12 14:12:50;;;;;;;12.50;8.78;;;;;;;28.69;57.22;99003.16;1862532;76;22248;-65
2021/07/12 14:15:45;;;;;;;12.85;9.53;;;;;;;28.70;57.20;98996.03;1870428;76;22167;-44
2021/07/12 14:18:40;;;;;;;14.63;8.83;;;;;;;28.64;57.33;98998.61;1860592;76;22205;-52
2021/07/12 14:21:15;;;;;;;10.23;8.28;;;;;;;28.55;57.62;98997.88;1856083;76;22602;-52
2021/07/12 14:23:50;;;;;;;11.43;8.75;;;;;;;28.34;57.96;98998.23;1858915;76;22177;-44
2021/07/12 14:26:25;;;;;;;11.60;8.88;;;;;;;28.10;58.45;98998.39;1850667;76;22167;-51
2021/07/12 14:29:00;;;;;;;12.98;8.88;;;;;;;27.93;59.26;98995.41;1870536;76;22160;-48
2021/07/12 14:31:38;;;;;;;11.70;9.23;;;;;;;27.84;59.70;98995.50;1870665;76;22572;-50
2021/07/12 14:34:12;;;;;;;14.95;9.50;;;;;;;27.79;59.96;98990.06;1889921;76;22124;-55
2021/07/12 14:36:46;;;;;;;10.25;9.13;;;;;;;27.68;60.33;98980.07;1870608;76;22124;-54
2021/07/12 14:39:21;;;;;;;10.90;9.40;;;;;;;27.70;60.56;98976.86;1889939;76;22152;-45
2021/07/12 14:41:56;;;;;;;11.38;9.05;;;;;;;27.69;60.91;98983.12;1889946;76;22558;-48
2021/07/12 14:44:35;;;;;;;10.35;9.25;;;;;;;27.69;61.10;98975.17;1870692;76;22104;-50
2021/07/12 14:47:09;;;;;;;10.68;9.48;;;;;;;27.66;61.11;98983.31;1870677;76;22577;-45
2021/07/12 14:49:44;;;;;;;11.03;9.10;;;;;;;27.65;60.86;98984.23;1889959;76;22185;-56
2021/07/12 14:52:37;;;;;;;13.90;9.43;;;;;;;27.65;60.87;98982.91;1889944;76;22198;-50
2021/07/12 14:55:13;;;;;;;16.82;9.65;;;;;;;27.60;60.98;98983.66;1890003;76;22135;-55
2021/07/12 14:58:07;;;;;;;13.38;9.00;;;;;;;27.48;61.07;98976.81;1870594;76;22117;-45
2021/07/12 15:00:42;;;;;;;13.77;9.77;;;;;;;27.43;60.76;98980.67;1854840;76;27889;-49
2021/07/12 15:03:18;;;;;;;11.90;9.73;;;;;;;27.41;61.11;98980.75;1870675;76;22559;-45
2021/07/12 15:05:55;;;;;;;14.00;9.70;;;;;;;27.41;61.52;98979.91;1889957;76;22156;-53
2021/07/12 15:08:28;;;;;;;12.40;9.97;;;;;;;27.39;61.75;98983.96;1846042;76;27928;-53
2021/07/12 15:11:08;;;;;;;14.40;11.03;;;;;;;27.39;61.99;98976.01;1848587;76;28035;-53
2021/07/12 15:13:43;;;;;;;11.97;10.15;;;;;;;27.41;62.25;98983.88;1852762;76;22159;-50
2021/07/12 15:16:19;;;;;;;12.07;10.20;;;;;;;27.30;62.73;98990.25;1836272;76;28124;-56
2021/07/12 15:18:56;;;;;;;13.98;9.95;;;;;;;27.30;62.68;99001.73;1873915;76;27934;-54
2021/07/12 15:21:51;;;;;;;15.30;10.80;;;;;;;27.29;63.21;99006.63;1848821;76;22160;-56
2021/07/12 15:24:27;;;;;;;15.83;10.50;;;;;;;26.95;64.69;99006.34;1839802;76;27930;-46
2021/07/12 15:27:03;;;;;;;12.43;10.50;;;;;;;26.90;65.00;98999.11;1855445;76;22173;-47
2021/07/12 15:29:37;;;;;;;14.13;10.73;;;;;;;26.93;65.01;99013.03;1855097;76;27909;-46
2021/07/12 15:32:12;;;;;;;13.48;10.43;;;;;;;27.06;65.09;99012.72;1889961;76;22123;-42
2021/07/12 15:34:47;;;;;;;15.05;10.28;;;;;;;27.14;64.79;99010.12;1858633;76;22165;-58
2021/07/12 15:37:22;;;;;;;11.05;9.88;;;;;;;27.12;64.86;99008.90;1868055;76;22227;-57
2021/07/12 15:40:06;;;;;;;13.35;10.13;;;;;;;26.96;64.23;99006.23;1889948;76;22155;-64
2021/07/12 15:42:41;;;;;;;12.18;9.63;;;;;;;26.74;65.04;99000.41;1889946;76;22140;-60
2021/07/12 15:45:16;;;;;;;13.22;10.15;;;;;;;26.71;64.79;98995.28;1889985;76;22163;-63
2021/07/12 15:47:51;;;;;;;12.88;10.05;;;;;;;26.78;64.36;98990.05;1862187;76;22196;-62
2021/07/12 15:50:26;;;;;;;12.43;10.35;;;;;;;26.84;64.40;98991.02;1856397;76;22166;-64
2021/07/12 15:53:09;;;;;;;13.50;10.90;;;;;;;26.89;63.59;98992.94;1860596;76;22160;-64
2021/07/12 15:55:44;;;;;;;13.08;10.63;;;;;;;26.88;63.94;98988.59;1855589;76;22223;-62
2021/07/12 15:58:39;;;;;;;14.55;10.58;;;;;;;26.88;64.34;98983.30;1862480;75;22184;-62
2021/07/12 16:01:21;;;;;;;14.10;10.75;;;;;;;26.93;63.79;98977.27;1889818;76;22135;-63
2021/07/12 16:03:56;;;;;;;14.30;10.90;;;;;;;26.96;63.79;98963.85;1873027;76;28030;-61
2021/07/12 16:06:31;;;;;;;14.13;9.53;;;;;;;27.00;63.72;98964.08;1853816;76;28032;-64
2021/07/12 16:09:06;;;;;;;11.15;9.58;;;;;;;27.04;62.34;98978.84;1854835;76;38218;-63
2021/07/12 16:11:41;;;;;;;10.23;9.05;;;;;;;27.10;61.07;98973.69;1870708;76;22129;-61
2021/07/12 16:17:00;;;;;;;12.25;8.28;;;;;;;27.06;60.38;98970.34;1854929;76;27921;-61
2021/07/12 16:19:35;;;;;;;10.10;8.45;;;;;;;27.10;59.59;98963.56;1870637;76;22117;-63
2021/07/12 16:22:29;;;;;;;11.38;7.12;;;;;;;27.15;57.91;98979.58;1889870;76;22144;-64
2021/07/12 16:25:10;;;;;;;11.03;6.97;;;;;;;27.17;56.41;98988.30;1870794;76;22587;-63
2021/07/12 16:27:50;;;;;;;17.52;7.37;;;;;;;27.07;56.36;98976.48;1869843;76;22136;-63
2021/07/12 16:30:25;;;;;;;9.18;6.65;;;;;;;26.96;57.29;98978.89;1890066;76;22162;-64
2021/07/12 16:33:00;;;;;;;8.00;6.80;;;;;;;26.85;56.56;98980.35;1870766;76;22171;-62
2021/07/12 16:35:35;;;;;;;8.65;5.75;;;;;;;26.78;55.45;98991.36;1870697;76;22160;-61
2021/07/12 16:38:10;;;;;;;9.30;6.33;;;;;;;26.69;54.99;98977.30;1889924;76;22159;-63
2021/07/12 16:41:04;;;;;;;10.20;6.33;;;;;;;26.60;55.38;98986.14;1870459;76;22612;-62
2021/07/12 16:43:39;;;;;;;7.42;5.78;;;;;;;26.57;55.55;98988.95;1889940;76;22108;-61
2021/07/12 16:46:14;;;;;;;9.43;5.97;;;;;;;26.54;55.66;99000.19;1870642;76;22188;-62
2021/07/12 16:48:50;;;;;;;11.65;5.97;;;;;;;26.50;55.44;99005.22;1889953;76;22127;-62
2021/07/12 16:51:27;;;;;;;9.98;5.62;;;;;;;26.42;55.73;99017.54;1870566;76;22173;-63
2021/07/12 16:54:03;;;;;;;9.80;6.10;;;;;;;26.27;55.82;99016.55;1889947;76;22534;-63
2021/07/12 16:56:38;;;;;;;7.22;6.00;;;;;;;26.19;56.76;99003.73;1889978;76;20212;-62
2021/07/12 16:59:13;;;;;;;10.43;6.37;;;;;;;26.07;57.63;99011.45;1870622;76;22142;-63
2021/07/12 17:01:49;;;;;;;9.48;6.60;;;;;;;25.98;58.26;99012.79;1870443;76;22255;-63
2021/07/12 17:04:24;;;;;;;9.78;6.85;;;;;;;25.97;58.38;99030.42;1890061;76;22144;-63
2021/07/12 17:06:59;;;;;;;9.28;6.00;;;;;;;25.89;58.20;99031.28;1890080;76;22167;-62
2021/07/12 17:09:35;;;;;;;12.20;6.37;;;;;;;25.79;58.64;99040.58;1870651;76;22136;-65
2021/07/12 17:12:12;;;;;;;12.58;7.20;;;;;;;25.81;59.32;99028.62;1870658;76;22190;-62
2021/07/12 17:14:47;;;;;;;10.68;6.60;;;;;;;25.87;59.66;99038.91;1870486;76;22168;-62
2021/07/12 17:17:23;;;;;;;10.43;7.10;;;;;;;25.92;59.98;99048.78;1870609;76;22628;-64
2021/07/12 17:19:59;;;;;;;10.23;7.22;;;;;;;25.86;60.26;99045.14;1870561;76;22175;-64
2021/07/12 17:22:54;;;;;;;11.60;7.37;;;;;;;25.84;60.90;99041.68;1870546;76;22109;-64
2021/07/12 17:25:28;;;;;;;14.98;7.75;;;;;;;25.73;62.21;99048.36;1890077;76;22120;-60
2021/07/12 17:28:04;;;;;;;12.03;7.53;;;;;;;25.66;62.89;99050.06;1870644;76;22562;-65
2021/07/12 17:30:58;;;;;;;10.50;7.60;;;;;;;25.64;63.21;99058.05;1873427;75;22204;-62
2021/07/12 17:33:46;;;;;;;8.48;7.35;;;;;;;25.72;62.86;99037.41;1870582;76;22157;-63
2021/07/12 17:36:22;;;;;;;9.15;6.80;;;;;;;25.79;62.44;99043.23;1870608;76;22583;-63
2021/07/12 17:38:59;;;;;;;7.00;5.40;;;;;;;25.89;61.01;99070.95;1889940;76;22139;-64
2021/07/12 17:41:34;;;;;;;7.10;4.92;;;;;;;25.62;59.97;99071.84;1870792;76;22148;-64
2021/07/12 17:44:09;;;;;;;10.72;5.35;;;;;;;25.51;60.20;99072.81;1870599;76;22139;-65
2021/07/12 17:46:46;;;;;;;10.30;5.45;;;;;;;25.36;60.31;99084.97;1870435;76;22168;-63
2021/07/12 17:49:21;;;;;;;8.13;5.20;;;;;;;25.29;60.97;99071.21;1870666;76;22543;-62
2021/07/12 17:51:56;;;;;;;7.22;5.33;;;;;;;25.40;60.93;99050.02;1889966;76;22139;-63
2021/07/12 17:55:11;;;;;;;8.78;5.58;;;;;;;25.42;60.56;99058.27;1870372;75;22161;-63
2021/07/12 17:57:46;;;;;;;9.25;5.70;;;;;;;25.34;60.77;99057.31;1870674;76;22144;-63
2021/07/12 18:00:21;;;;;;;10.93;5.72;;;;;;;25.25;60.93;99060.86;1870682;76;22550;-63
2021/07/12 18:03:14;;;;;;;7.80;5.05;;;;;;;25.12;61.29;99049.52;1889869;76;22120;-62
2021/07/12 18:05:49;;;;;;;8.60;5.45;;;;;;;25.08;61.38;99048.41;1870667;76;22117;-63
2021/07/12 18:08:23;;;;;;;8.58;5.72;;;;;;;25.00;61.47;99045.27;1870691;76;22154;-62
2021/07/12 18:11:21;;;;;;;8.18;5.42;;;;;;;24.89;61.66;99050.59;1863389;75;22202;-62
2021/07/12 18:13:56;;;;;;;7.75;5.17;;;;;;;24.73;62.23;99039.48;1870681;76;22113;-64
2021/07/12 18:16:34;;;;;;;12.03;5.47;;;;;;;24.59;62.63;99029.56;1870630;76;22124;-64
2021/07/12 18:19:07;;;;;;;9.55;5.62;;;;;;;24.49;63.19;99039.67;1870680;76;22571;-62
2021/07/12 18:21:42;;;;;;;8.33;5.90;;;;;;;24.37;63.31;99032.27;1870660;76;22166;-61
2021/07/12 18:24:18;;;;;;;13.38;6.37;;;;;;;24.29;63.69;99023.38;1870446;76;22572;-64
2021/07/12 18:26:55;;;;;;;9.28;5.70;;;;;;;24.23;64.07;99013.11;1870537;76;22560;-62
2021/07/12 18:29:32;;;;;;;9.18;5.45;;;;;;;24.17;64.40;99005.02;1870760;76;22116;-63
2021/07/12 18:32:07;;;;;;;12.13;6.17;;;;;;;24.12;64.55;99003.47;1889970;76;22196;-63
2021/07/12 18:34:43;;;;;;;8.88;5.90;;;;;;;24.08;64.69;98995.33;1854698;76;27929;-62
2021/07/12 18:37:25;;;;;;;10.18;5.55;;;;;;;24.08;64.78;98992.22;1889803;76;22205;-65
2021/07/12 18:40:19;;;;;;;6.87;5.10;;;;;;;24.04;64.82;98987.55;1889933;76;22559;-63
2021/07/12 18:43:13;;;;;;;8.35;5.15;;;;;;;24.00;64.91;98989.92;1889932;76;22140;-63
2021/07/12 18:45:48;;;;;;;8.90;5.50;;;;;;;23.97;64.97;98986.11;1870684;76;22109;-63
2021/07/12 18:48:43;;;;;;;9.13;5.70;;;;;;;23.94;65.23;98978.34;1870423;76;22148;-63
2021/07/12 18:51:18;;;;;;;11.23;6.07;;;;;;;23.91;65.36;98982.86;1854829;76;28340;-63
2021/07/12 18:53:52;;;;;;;8.13;5.80;;;;;;;23.92;65.29;98980.17;1870662;76;22580;-63
2021/07/12 18:56:46;;;;;;;10.60;5.42;;;;;;;23.90;65.34;98981.16;1870627;76;22141;-63
2021/07/12 18:59:21;;;;;;;8.40;6.22;;;;;;;23.86;65.40;98971.20;1870682;76;22554;-64
2021/07/12 19:01:57;;;;;;;9.65;5.62;;;;;;;23.83;65.50;98964.28;1870419;76;22563;-63
2021/07/12 19:04:31;;;;;;;10.98;6.35;;;;;;;23.80;65.60;98960.93;1870711;76;22113;-65
2021/07/12 19:07:07;;;;;;;10.67;6.17;;;;;;;23.79;65.60;98963.19;1854679;76;27926;-62
2021/07/12 19:09:40;;;;;;;9.75;6.20;;;;;;;23.81;65.55;98965.27;1848575;76;22180;-62
2021/07/12 19:12:14;;;;;;;10.13;6.25;;;;;;;23.78;65.57;98960.13;1855144;76;22590;-63
2021/07/12 19:14:49;;;;;;;9.23;5.70;;;;;;;23.75;65.67;98969.50;1870224;76;22562;-63
2021/07/12 19:17:45;;;;;;;10.38;6.45;;;;;;;23.71;65.79;98969.19;1862821;75;22183;-63
2021/07/12 19:20:29;;;;;;;11.12;5.90;;;;;;;23.69;65.91;98966.64;1870295;76;22172;-62
2021/07/12 19:23:04;;;;;;;8.80;5.67;;;;;;;23.67;65.99;98961.03;1870782;76;22145;-62
2021/07/12 19:26:01;;;;;;;10.45;5.83;;;;;;;23.65;65.92;98962.41;1870445;76;22184;-62
2021/07/12 19:28:37;;;;;;;8.38;6.15;;;;;;;23.65;65.88;98964.19;1870531;76;22251;-61
2021/07/12 19:31:12;;;;;;;13.28;6.45;;;;;;;23.63;65.86;98964.24;1854752;76;27900;-63
2021/07/12 19:33:46;;;;;;;9.08;5.62;;;;;;;23.66;65.91;98963.26;1889992;76;22137;-62
2021/07/12 19:36:23;;;;;;;11.70;5.58;;;;;;;23.65;65.91;98958.92;1870533;76;22113;-62
2021/07/12 19:39:18;;;;;;;11.30;5.90;;;;;;;23.67;65.90;98958.41;1870451;76;22144;-62
2021/07/12 19:41:53;;;;;;;9.95;5.90;;;;;;;23.68;65.89;98960.10;1870603;76;22169;-63
2021/07/12 19:44:29;;;;;;;13.18;6.90;;;;;;;23.70;65.77;98961.75;1889920;76;22168;-61
2021/07/12 19:47:04;;;;;;;9.48;5.70;;;;;;;23.71;65.66;98961.28;1870635;76;22144;-61
2021/07/12 19:49:40;;;;;;;10.65;6.50;;;;;;;23.70;65.67;98960.43;1854830;76;28362;-62
2021/07/12 19:52:36;;;;;;;9.60;6.22;;;;;;;23.75;65.64;98960.27;1870407;76;22168;-61
2021/07/12 19:55:13;;;;;;;14.05;6.62;;;;;;;23.72;65.74;98970.92;1870504;76;22121;-62
2021/07/12 19:57:48;;;;;;;10.60;6.60;;;;;;;23.68;65.82;98968.01;1889957;76;22159;-61
2021/07/12 20:00:42;;;;;;;11.50;6.50;;;;;;;23.64;65.81;98967.30;1855619;76;22590;-61
2021/07/12 20:03:17;;;;;;;10.00;6.47;;;;;;;23.61;65.90;98968.75;1853146;76;22164;-63
2021/07/12 20:05:53;;;;;;;10.43;7.42;;;;;;;23.58;66.04;98972.37;1813751;76;38578;-65
2021/07/12 20:08:28;;;;;;;14.23;7.00;;;;;;;23.58;66.17;98969.73;1889937;76;22112;-63
2021/07/12 20:11:03;;;;;;;12.68;7.37;;;;;;;23.54;66.42;98976.03;1870653;76;22148;-64
2021/07/12 20:13:44;;;;;;;11.10;6.83;;;;;;;23.50;66.66;98982.81;1889810;76;22190;-62
2021/07/12 20:16:20;;;;;;;10.55;7.42;;;;;;;23.46;66.85;98981.21;1839697;76;28461;-60
2021/07/12 20:18:55;;;;;;;9.23;6.33;;;;;;;23.43;67.10;98983.51;1889901;76;22116;-62
2021/07/12 20:21:50;;;;;;;11.97;7.08;;;;;;;23.39;67.37;98988.06;1870502;76;22176;-62
2021/07/12 20:24:24;;;;;;;15.45;7.42;;;;;;;23.37;68.00;98981.14;1889904;76;22713;-63
2021/07/12 20:26:59;;;;;;;11.90;7.65;;;;;;;23.34;68.86;98978.64;1870586;76;22136;-62
2021/07/12 20:29:35;;;;;;;13.20;7.80;;;;;;;23.28;69.31;98985.45;1847063;76;22594;-62
2021/07/12 20:32:10;;;;;;;13.40;7.75;;;;;;;23.20;69.98;98989.71;1870394;76;22152;-62
2021/07/12 20:34:52;;;;;;;12.07;8.20;;;;;;;23.12;70.90;98994.44;1863347;76;22188;-62
2021/07/12 20:37:46;;;;;;;12.28;8.50;;;;;;;23.05;71.60;98992.95;1853814;76;22630;-63
2021/07/12 20:40:41;;;;;;;13.22;8.90;;;;;;;22.98;72.36;98987.56;1839270;76;28632;-63
2021/07/12 20:43:19;;;;;;;13.03;8.63;;;;;;;22.94;72.91;98984.99;1876140;76;22179;-64
2021/07/12 20:45:56;;;;;;;10.85;8.50;;;;;;;22.89;73.33;98986.09;1852945;76;22196;-65
2021/07/12 20:48:30;;;;;;;11.73;7.70;;;;;;;22.80;73.75;98975.48;1865517;76;22171;-63
2021/07/12 20:51:06;;;;;;;11.28;8.25;;;;;;;22.73;74.31;98974.85;1851715;76;22249;-65
2021/07/12 20:53:41;;;;;;;13.75;8.53;;;;;;;22.68;74.60;98971.54;1852854;76;22196;-62
2021/07/12 20:56:15;;;;;;;12.18;8.30;;;;;;;22.63;75.05;98970.86;1875126;76;22155;-63
2021/07/12 20:59:11;;;;;;;11.05;9.33;;;;;;;22.59;75.17;98974.51;1865120;75;22189;-63
2021/07/12 21:01:46;;;;;;;12.75;9.10;;;;;;;22.53;75.46;98974.75;1854558;76;28349;-63
2021/07/12 21:04:21;;;;;;;11.88;7.95;;;;;;;22.52;75.63;98973.90;1888444;76;22203;-63
2021/07/12 21:07:17;;;;;;;12.53;9.05;;;;;;;22.48;75.84;98971.44;1868683;76;22260;-63
2021/07/12 21:09:51;;;;;;;10.85;8.80;;;;;;;22.43;76.07;98974.23;1869757;76;22152;-63
2021/07/12 21:12:26;;;;;;;12.30;8.38;;;;;;;22.39;76.39;98982.28;1888711;76;22238;-63
2021/07/12 21:15:01;;;;;;;13.62;8.38;;;;;;;22.33;76.39;98988.17;1889194;76;22235;-62
2021/07/12 21:17:55;;;;;;;12.35;7.53;;;;;;;22.30;76.45;98994.02;1869947;76;22153;-63
2021/07/12 21:20:30;;;;;;;11.65;7.78;;;;;;;22.26;76.47;98997.22;1870685;76;22552;-64
2021/07/12 21:23:04;;;;;;;9.00;7.78;;;;;;;22.23;76.58;98995.14;1870695;76;22140;-63
2021/07/12 21:25:41;;;;;;;12.30;7.65;;;;;;;22.18;76.52;98994.42;1889993;76;22579;-60
2021/07/12 21:28:22;;;;;;;16.40;7.97;;;;;;;22.17;76.39;98992.72;1870680;76;22145;-62
2021/07/12 21:31:15;;;;;;;10.65;8.33;;;;;;;22.18;76.04;98996.58;1870538;76;22154;-61
2021/07/12 21:34:10;;;;;;;10.50;7.72;;;;;;;22.19;75.80;99001.41;1870485;76;22600;-62
2021/07/12 21:36:44;;;;;;;9.38;6.70;;;;;;;22.18;75.37;99007.56;1870747;76;22117;-61
2021/07/12 21:39:19;;;;;;;9.48;6.97;;;;;;;22.19;75.03;99009.30;1870709;76;22579;-62
2021/07/12 21:41:55;;;;;;;10.70;6.83;;;;;;;22.22;74.64;99023.20;1870706;76;22145;-62
2021/07/12 21:44:30;;;;;;;9.60;7.58;;;;;;;22.23;74.74;99027.54;1890090;76;22128;-62
2021/07/12 21:47:07;;;;;;;9.28;7.00;;;;;;;22.23;74.50;99040.69;1870535;76;22165;-63
2021/07/12 21:49:42;;;;;;;9.63;6.67;;;;;;;22.24;74.15;99047.68;1854739;76;38183;-61
2021/07/12 21:52:17;;;;;;;8.63;6.20;;;;;;;22.28;73.71;99038.75;1889964;76;22143;-61
2021/07/12 21:55:13;;;;;;;9.03;6.72;;;;;;;22.32;73.50;99056.14;1870477;76;22137;-62
2021/07/12 21:57:55;;;;;;;11.53;7.45;;;;;;;22.36;73.10;99052.94;1889918;76;22204;-63
2021/07/12 22:00:31;;;;;;;8.50;6.50;;;;;;;22.38;72.92;99046.32;1870717;76;22145;-62
2021/07/12 22:03:07;;;;;;;9.38;6.55;;;;;;;22.39;72.81;99034.88;1870607;76;22106;-61
2021/07/12 22:05:41;;;;;;;8.85;6.37;;;;;;;22.39;72.75;99037.51;1870684;76;22139;-61
2021/07/12 22:08:37;;;;;;;14.40;6.33;;;;;;;22.39;72.62;99028.30;1870543;76;22547;-62
2021/07/12 22:11:12;;;;;;;9.68;6.55;;;;;;;22.40;72.62;99032.67;1870673;76;22145;-62
2021/07/12 22:13:47;;;;;;;11.28;6.50;;;;;;;22.39;72.41;99023.93;1873899;76;27928;-62
2021/07/12 22:16:42;;;;;;;11.15;6.17;;;;;;;22.44;72.26;99030.31;1870491;76;22166;-61
2021/07/12 22:19:18;;;;;;;11.68;6.92;;;;;;;22.40;72.11;99027.41;1870529;76;22132;-62